sensor_id;sensor_type;location;lat;lon;timestamp;P1;durP1;ratioP1;P2;durP2;ratioP2
62610;SDS011;48683;48.084;17.272;2024-03-22T00:01:45;7.65;;;5.53;;
62610;SDS011;48683;48.084;17.272;2024-03-22T00:04:11;10.05;;;5.35;;
62610;SDS011;48683;48.084;17.272;2024-03-22T00:06:36;7.18;;;5.55;;
62610;SDS011;48683;48.084;17.272;2024-03-22T00:09:01;8.40;;;5.63;;
62610;SDS011;48683;48.084;17.272;2024-03-22T00:11:26;6.93;;;5.80;;
62610;SDS011;48683;48.084;17.272;2024-03-22T00:13:52;5.83;;;5.23;;
62610;SDS011;48683;48.084;17.272;2024-03-22T00:16:17;9.33;;;6.07;;
62610;SDS011;48683;48.084;17.272;2024-03-22T00:18:42;7.53;;;6.00;;
62610;SDS011;48683;48.084;17.272;2024-03-22T00:21:07;7.03;;;5.87;;
62610;SDS011;48683;48.084;17.272;2024-03-22T00:23:32;6.77;;;5.87;;
62610;SDS011;48683;48.084;17.272;2024-03-22T00:25:57;6.37;;;5.77;;
62610;SDS011;48683;48.084;17.272;2024-03-22T00:28:23;6.63;;;5.90;;
62610;SDS011;48683;48.084;17.272;2024-03-22T00:30:48;7.03;;;6.33;;
62610;SDS011;48683;48.084;17.272;2024-03-22T00:33:13;7.65;;;6.07;;
62610;SDS011;48683;48.084;17.272;2024-03-22T00:35:38;8.20;;;6.10;;
62610;SDS011;48683;48.084;17.272;2024-03-22T00:38:03;6.17;;;5.57;;
62610;SDS011;48683;48.084;17.272;2024-03-22T00:40:28;8.97;;;6.20;;
62610;SDS011;48683;48.084;17.272;2024-03-22T00:42:54;8.63;;;5.97;;
62610;SDS011;48683;48.084;17.272;2024-03-22T00:45:19;8.60;;;6.70;;
62610;SDS011;48683;48.084;17.272;2024-03-22T00:47:44;8.67;;;6.70;;
62610;SDS011;48683;48.084;17.272;2024-03-22T00:50:09;11.07;;;7.67;;
62610;SDS011;48683;48.084;17.272;2024-03-22T00:52:34;7.03;;;6.32;;
62610;SDS011;48683;48.084;17.272;2024-03-22T00:55:00;9.60;;;7.07;;
62610;SDS011;48683;48.084;17.272;2024-03-22T00:57:25;7.37;;;6.63;;
62610;SDS011;48683;48.084;17.272;2024-03-22T00:59:50;8.27;;;6.87;;
62610;SDS011;48683;48.084;17.272;2024-03-22T01:02:15;6.87;;;6.17;;
62610;SDS011;48683;48.084;17.272;2024-03-22T01:04:40;7.10;;;6.40;;
62610;SDS011;48683;48.084;17.272;2024-03-22T01:07:05;7.90;;;6.90;;
62610;SDS011;48683;48.084;17.272;2024-03-22T01:09:31;6.97;;;5.70;;
62610;SDS011;48683;48.084;17.272;2024-03-22T01:11:56;7.82;;;6.70;;
62610;SDS011;48683;48.084;17.272;2024-03-22T01:14:21;8.50;;;6.80;;
62610;SDS011;48683;48.084;17.272;2024-03-22T01:16:47;8.23;;;7.07;;
62610;SDS011;48683;48.084;17.272;2024-03-22T01:19:12;6.90;;;6.07;;
62610;SDS011;48683;48.084;17.272;2024-03-22T01:21:37;7.70;;;6.87;;
62610;SDS011;48683;48.084;17.272;2024-03-22T01:24:02;11.05;;;7.72;;
62610;SDS011;48683;48.084;17.272;2024-03-22T01:26:28;8.80;;;7.60;;
62610;SDS011;48683;48.084;17.272;2024-03-22T01:28:53;12.13;;;8.00;;
62610;SDS011;48683;48.084;17.272;2024-03-22T01:31:18;13.03;;;7.83;;
62610;SDS011;48683;48.084;17.272;2024-03-22T01:33:43;8.63;;;7.43;;
62610;SDS011;48683;48.084;17.272;2024-03-22T01:36:08;9.77;;;8.00;;
62610;SDS011;48683;48.084;17.272;2024-03-22T01:38:33;8.90;;;8.00;;
62610;SDS011;48683;48.084;17.272;2024-03-22T01:40:59;9.37;;;8.37;;
62610;SDS011;48683;48.084;17.272;2024-03-22T01:43:24;12.33;;;8.07;;
62610;SDS011;48683;48.084;17.272;2024-03-22T01:45:49;11.60;;;8.83;;
62610;SDS011;48683;48.084;17.272;2024-03-22T01:48:14;10.53;;;8.90;;
62610;SDS011;48683;48.084;17.272;2024-03-22T01:50:40;10.73;;;8.52;;
62610;SDS011;48683;48.084;17.272;2024-03-22T01:53:06;11.20;;;9.05;;
62610;SDS011;48683;48.084;17.272;2024-03-22T01:55:31;11.60;;;9.03;;
62610;SDS011;48683;48.084;17.272;2024-03-22T01:57:56;15.80;;;10.60;;
62610;SDS011;48683;48.084;17.272;2024-03-22T02:00:21;11.52;;;9.68;;
62610;SDS011;48683;48.084;17.272;2024-03-22T02:02:46;13.43;;;10.82;;
62610;SDS011;48683;48.084;17.272;2024-03-22T02:05:16;12.13;;;10.17;;
62610;SDS011;48683;48.084;17.272;2024-03-22T02:07:44;13.48;;;10.02;;
62610;SDS011;48683;48.084;17.272;2024-03-22T02:10:09;13.40;;;10.43;;
62610;SDS011;48683;48.084;17.272;2024-03-22T02:12:36;13.23;;;10.40;;
62610;SDS011;48683;48.084;17.272;2024-03-22T02:15:01;12.23;;;10.52;;
62610;SDS011;48683;48.084;17.272;2024-03-22T02:17:26;13.40;;;10.88;;
62610;SDS011;48683;48.084;17.272;2024-03-22T02:19:52;14.47;;;10.27;;
62610;SDS011;48683;48.084;17.272;2024-03-22T02:22:17;13.90;;;11.70;;
62610;SDS011;48683;48.084;17.272;2024-03-22T02:24:42;14.90;;;11.73;;
62610;SDS011;48683;48.084;17.272;2024-03-22T02:27:07;18.20;;;12.37;;
62610;SDS011;48683;48.084;17.272;2024-03-22T02:29:32;14.37;;;10.90;;
62610;SDS011;48683;48.084;17.272;2024-03-22T02:31:57;15.33;;;11.80;;
62610;SDS011;48683;48.084;17.272;2024-03-22T02:34:23;16.25;;;12.35;;
62610;SDS011;48683;48.084;17.272;2024-03-22T02:36:48;13.25;;;11.70;;
62610;SDS011;48683;48.084;17.272;2024-03-22T02:39:13;15.60;;;12.15;;
62610;SDS011;48683;48.084;17.272;2024-03-22T02:41:39;15.70;;;13.20;;
62610;SDS011;48683;48.084;17.272;2024-03-22T02:44:04;18.90;;;13.63;;
62610;SDS011;48683;48.084;17.272;2024-03-22T02:46:29;15.43;;;12.80;;
62610;SDS011;48683;48.084;17.272;2024-03-22T02:48:55;18.23;;;13.27;;
62610;SDS011;48683;48.084;17.272;2024-03-22T02:51:20;17.03;;;14.10;;
62610;SDS011;48683;48.084;17.272;2024-03-22T02:53:45;16.42;;;13.60;;
62610;SDS011;48683;48.084;17.272;2024-03-22T02:56:11;17.60;;;13.20;;
62610;SDS011;48683;48.084;17.272;2024-03-22T02:58:36;18.87;;;13.80;;
62610;SDS011;48683;48.084;17.272;2024-03-22T03:01:01;17.83;;;14.10;;
62610;SDS011;48683;48.084;17.272;2024-03-22T03:03:28;18.38;;;14.07;;
62610;SDS011;48683;48.084;17.272;2024-03-22T03:05:53;18.38;;;14.18;;
62610;SDS011;48683;48.084;17.272;2024-03-22T03:08:19;17.85;;;14.05;;
62610;SDS011;48683;48.084;17.272;2024-03-22T03:10:44;20.07;;;14.67;;
62610;SDS011;48683;48.084;17.272;2024-03-22T03:13:10;17.00;;;13.65;;
62610;SDS011;48683;48.084;17.272;2024-03-22T03:15:35;17.83;;;13.30;;
62610;SDS011;48683;48.084;17.272;2024-03-22T03:18:00;18.40;;;14.80;;
62610;SDS011;48683;48.084;17.272;2024-03-22T03:20:26;17.73;;;12.90;;
62610;SDS011;48683;48.084;17.272;2024-03-22T03:22:51;16.75;;;14.07;;
62610;SDS011;48683;48.084;17.272;2024-03-22T03:25:17;18.57;;;15.40;;
62610;SDS011;48683;48.084;17.272;2024-03-22T03:27:42;18.75;;;14.38;;
62610;SDS011;48683;48.084;17.272;2024-03-22T03:30:07;16.57;;;13.07;;
62610;SDS011;48683;48.084;17.272;2024-03-22T03:32:32;16.65;;;14.45;;
62610;SDS011;48683;48.084;17.272;2024-03-22T03:34:57;16.65;;;14.85;;
62610;SDS011;48683;48.084;17.272;2024-03-22T03:37:23;18.40;;;13.30;;
62610;SDS011;48683;48.084;17.272;2024-03-22T03:39:48;19.37;;;15.10;;
62610;SDS011;48683;48.084;17.272;2024-03-22T03:42:13;18.15;;;15.30;;
62610;SDS011;48683;48.084;17.272;2024-03-22T03:44:38;20.15;;;15.48;;
62610;SDS011;48683;48.084;17.272;2024-03-22T03:47:04;18.23;;;14.10;;
62610;SDS011;48683;48.084;17.272;2024-03-22T03:49:29;18.70;;;14.85;;
62610;SDS011;48683;48.084;17.272;2024-03-22T03:51:54;20.40;;;15.53;;
62610;SDS011;48683;48.084;17.272;2024-03-22T03:54:19;18.97;;;15.33;;
62610;SDS011;48683;48.084;17.272;2024-03-22T03:56:44;16.73;;;14.43;;
62610;SDS011;48683;48.084;17.272;2024-03-22T03:59:09;19.37;;;15.10;;
62610;SDS011;48683;48.084;17.272;2024-03-22T04:01:35;20.30;;;15.70;;
62610;SDS011;48683;48.084;17.272;2024-03-22T04:04:00;18.10;;;15.18;;
62610;SDS011;48683;48.084;17.272;2024-03-22T04:06:25;18.10;;;15.23;;
62610;SDS011;48683;48.084;17.272;2024-03-22T04:08:50;21.23;;;15.30;;
62610;SDS011;48683;48.084;17.272;2024-03-22T04:11:16;21.38;;;15.90;;
62610;SDS011;48683;48.084;17.272;2024-03-22T04:13:41;22.20;;;15.57;;
62610;SDS011;48683;48.084;17.272;2024-03-22T04:16:06;20.75;;;14.93;;
62610;SDS011;48683;48.084;17.272;2024-03-22T04:18:31;17.92;;;14.82;;
62610;SDS011;48683;48.084;17.272;2024-03-22T04:20:57;19.00;;;14.93;;
62610;SDS011;48683;48.084;17.272;2024-03-22T04:23:23;26.17;;;15.43;;
62610;SDS011;48683;48.084;17.272;2024-03-22T04:25:52;19.92;;;15.10;;
62610;SDS011;48683;48.084;17.272;2024-03-22T04:28:18;19.05;;;15.55;;
62610;SDS011;48683;48.084;17.272;2024-03-22T04:30:43;21.23;;;15.37;;
62610;SDS011;48683;48.084;17.272;2024-03-22T04:33:08;20.47;;;15.60;;
62610;SDS011;48683;48.084;17.272;2024-03-22T04:35:33;19.10;;;15.27;;
62610;SDS011;48683;48.084;17.272;2024-03-22T04:37:58;17.87;;;15.07;;
62610;SDS011;48683;48.084;17.272;2024-03-22T04:40:23;20.17;;;16.57;;
62610;SDS011;48683;48.084;17.272;2024-03-22T04:42:49;20.23;;;15.82;;
62610;SDS011;48683;48.084;17.272;2024-03-22T04:45:15;23.20;;;16.37;;
62610;SDS011;48683;48.084;17.272;2024-03-22T04:47:40;22.50;;;16.53;;
62610;SDS011;48683;48.084;17.272;2024-03-22T04:50:05;19.15;;;15.70;;
62610;SDS011;48683;48.084;17.272;2024-03-22T04:52:31;20.33;;;16.00;;
62610;SDS011;48683;48.084;17.272;2024-03-22T04:54:57;19.35;;;15.52;;
62610;SDS011;48683;48.084;17.272;2024-03-22T04:57:22;18.60;;;15.57;;
62610;SDS011;48683;48.084;17.272;2024-03-22T04:59:47;20.87;;;16.27;;
62610;SDS011;48683;48.084;17.272;2024-03-22T05:02:12;22.03;;;16.17;;
62610;SDS011;48683;48.084;17.272;2024-03-22T05:04:37;22.33;;;16.27;;
62610;SDS011;48683;48.084;17.272;2024-03-22T05:07:02;22.07;;;16.53;;
62610;SDS011;48683;48.084;17.272;2024-03-22T05:09:28;22.00;;;17.08;;
62610;SDS011;48683;48.084;17.272;2024-03-22T05:11:53;21.90;;;16.30;;
62610;SDS011;48683;48.084;17.272;2024-03-22T05:14:19;23.77;;;16.50;;
62610;SDS011;48683;48.084;17.272;2024-03-22T05:16:44;22.30;;;15.80;;
62610;SDS011;48683;48.084;17.272;2024-03-22T05:19:09;20.80;;;16.50;;
62610;SDS011;48683;48.084;17.272;2024-03-22T05:21:34;22.90;;;16.33;;
62610;SDS011;48683;48.084;17.272;2024-03-22T05:24:00;24.30;;;16.45;;
62610;SDS011;48683;48.084;17.272;2024-03-22T05:26:25;22.53;;;16.27;;
62610;SDS011;48683;48.084;17.272;2024-03-22T05:28:50;19.97;;;16.20;;
62610;SDS011;48683;48.084;17.272;2024-03-22T05:31:15;19.13;;;15.80;;
62610;SDS011;48683;48.084;17.272;2024-03-22T05:33:40;17.43;;;15.13;;
62610;SDS011;48683;48.084;17.272;2024-03-22T05:36:06;14.77;;;12.83;;
62610;SDS011;48683;48.084;17.272;2024-03-22T05:38:31;17.40;;;14.73;;
62610;SDS011;48683;48.084;17.272;2024-03-22T05:40:56;19.00;;;14.83;;
62610;SDS011;48683;48.084;17.272;2024-03-22T05:43:21;18.63;;;14.33;;
62610;SDS011;48683;48.084;17.272;2024-03-22T05:45:47;17.45;;;14.20;;
62610;SDS011;48683;48.084;17.272;2024-03-22T05:48:13;18.43;;;15.53;;
62610;SDS011;48683;48.084;17.272;2024-03-22T05:50:38;20.10;;;16.77;;
62610;SDS011;48683;48.084;17.272;2024-03-22T05:53:03;20.80;;;16.47;;
62610;SDS011;48683;48.084;17.272;2024-03-22T05:55:29;22.87;;;16.87;;
62610;SDS011;48683;48.084;17.272;2024-03-22T05:57:56;21.67;;;16.30;;
62610;SDS011;48683;48.084;17.272;2024-03-22T06:00:21;21.20;;;15.43;;
62610;SDS011;48683;48.084;17.272;2024-03-22T06:02:46;21.10;;;16.03;;
62610;SDS011;48683;48.084;17.272;2024-03-22T06:05:11;17.37;;;15.17;;
62610;SDS011;48683;48.084;17.272;2024-03-22T06:07:37;24.83;;;17.25;;
62610;SDS011;48683;48.084;17.272;2024-03-22T06:10:07;20.83;;;16.90;;
62610;SDS011;48683;48.084;17.272;2024-03-22T06:12:32;20.23;;;17.23;;
62610;SDS011;48683;48.084;17.272;2024-03-22T06:14:58;20.30;;;15.73;;
62610;SDS011;48683;48.084;17.272;2024-03-22T06:17:23;23.37;;;17.13;;
62610;SDS011;48683;48.084;17.272;2024-03-22T06:19:48;21.23;;;16.47;;
62610;SDS011;48683;48.084;17.272;2024-03-22T06:22:13;21.38;;;16.30;;
62610;SDS011;48683;48.084;17.272;2024-03-22T06:24:39;21.60;;;15.97;;
62610;SDS011;48683;48.084;17.272;2024-03-22T06:27:04;18.98;;;16.33;;
62610;SDS011;48683;48.084;17.272;2024-03-22T06:29:30;19.13;;;15.88;;
62610;SDS011;48683;48.084;17.272;2024-03-22T06:31:55;20.67;;;16.70;;
62610;SDS011;48683;48.084;17.272;2024-03-22T06:34:20;22.10;;;17.63;;
62610;SDS011;48683;48.084;17.272;2024-03-22T06:36:45;23.95;;;16.55;;
62610;SDS011;48683;48.084;17.272;2024-03-22T06:39:12;21.25;;;17.40;;
62610;SDS011;48683;48.084;17.272;2024-03-22T06:41:37;24.43;;;16.87;;
62610;SDS011;48683;48.084;17.272;2024-03-22T06:44:02;20.55;;;17.35;;
62610;SDS011;48683;48.084;17.272;2024-03-22T06:46:27;23.05;;;17.45;;
62610;SDS011;48683;48.084;17.272;2024-03-22T06:48:53;21.25;;;17.40;;
62610;SDS011;48683;48.084;17.272;2024-03-22T06:51:18;21.38;;;16.98;;
62610;SDS011;48683;48.084;17.272;2024-03-22T06:53:43;19.95;;;16.77;;
62610;SDS011;48683;48.084;17.272;2024-03-22T06:56:10;26.20;;;16.98;;
62610;SDS011;48683;48.084;17.272;2024-03-22T06:58:36;21.20;;;17.13;;
62610;SDS011;48683;48.084;17.272;2024-03-22T07:01:02;24.50;;;18.42;;
62610;SDS011;48683;48.084;17.272;2024-03-22T07:03:27;22.00;;;18.60;;
62610;SDS011;48683;48.084;17.272;2024-03-22T07:05:52;24.77;;;18.33;;
62610;SDS011;48683;48.084;17.272;2024-03-22T07:08:17;23.60;;;18.08;;
62610;SDS011;48683;48.084;17.272;2024-03-22T07:10:43;32.73;;;18.93;;
62610;SDS011;48683;48.084;17.272;2024-03-22T07:13:08;22.35;;;18.17;;
62610;SDS011;48683;48.084;17.272;2024-03-22T07:15:34;26.75;;;18.42;;
62610;SDS011;48683;48.084;17.272;2024-03-22T07:17:59;22.03;;;18.40;;
62610;SDS011;48683;48.084;17.272;2024-03-22T07:20:25;23.20;;;18.03;;
62610;SDS011;48683;48.084;17.272;2024-03-22T07:22:50;22.98;;;18.58;;
62610;SDS011;48683;48.084;17.272;2024-03-22T07:25:16;28.83;;;19.38;;
62610;SDS011;48683;48.084;17.272;2024-03-22T07:27:41;27.90;;;20.43;;
62610;SDS011;48683;48.084;17.272;2024-03-22T07:30:07;23.05;;;17.85;;
62610;SDS011;48683;48.084;17.272;2024-03-22T07:32:32;23.90;;;19.45;;
62610;SDS011;48683;48.084;17.272;2024-03-22T07:34:58;23.70;;;18.73;;
62610;SDS011;48683;48.084;17.272;2024-03-22T07:37:23;23.20;;;19.38;;
62610;SDS011;48683;48.084;17.272;2024-03-22T07:39:48;21.95;;;18.08;;
62610;SDS011;48683;48.084;17.272;2024-03-22T07:42:14;23.95;;;19.63;;
62610;SDS011;48683;48.084;17.272;2024-03-22T07:44:39;23.40;;;19.50;;
62610;SDS011;48683;48.084;17.272;2024-03-22T07:47:04;29.25;;;21.00;;
62610;SDS011;48683;48.084;17.272;2024-03-22T07:49:30;24.52;;;18.65;;
62610;SDS011;48683;48.084;17.272;2024-03-22T07:51:56;32.45;;;19.88;;
62610;SDS011;48683;48.084;17.272;2024-03-22T07:54:21;28.40;;;21.43;;
62610;SDS011;48683;48.084;17.272;2024-03-22T07:56:46;28.63;;;19.70;;
62610;SDS011;48683;48.084;17.272;2024-03-22T07:59:12;24.37;;;20.17;;
62610;SDS011;48683;48.084;17.272;2024-03-22T08:01:37;24.10;;;19.90;;
62610;SDS011;48683;48.084;17.272;2024-03-22T08:04:02;27.52;;;21.30;;
62610;SDS011;48683;48.084;17.272;2024-03-22T08:06:28;23.60;;;20.08;;
62610;SDS011;48683;48.084;17.272;2024-03-22T08:08:53;27.50;;;20.70;;
62610;SDS011;48683;48.084;17.272;2024-03-22T08:11:18;25.45;;;19.95;;
62610;SDS011;48683;48.084;17.272;2024-03-22T08:13:43;24.40;;;19.33;;
62610;SDS011;48683;48.084;17.272;2024-03-22T08:16:08;25.37;;;20.07;;
62610;SDS011;48683;48.084;17.272;2024-03-22T08:18:34;23.48;;;17.15;;
62610;SDS011;48683;48.084;17.272;2024-03-22T08:20:59;19.63;;;16.17;;
62610;SDS011;48683;48.084;17.272;2024-03-22T08:23:24;19.58;;;15.57;;
62610;SDS011;48683;48.084;17.272;2024-03-22T08:25:49;21.88;;;17.17;;
62610;SDS011;48683;48.084;17.272;2024-03-22T08:28:15;21.40;;;16.67;;
62610;SDS011;48683;48.084;17.272;2024-03-22T08:30:40;24.15;;;17.17;;
62610;SDS011;48683;48.084;17.272;2024-03-22T08:33:07;20.73;;;15.70;;
62610;SDS011;48683;48.084;17.272;2024-03-22T08:35:32;20.93;;;16.33;;
62610;SDS011;48683;48.084;17.272;2024-03-22T08:37:57;20.03;;;16.10;;
62610;SDS011;48683;48.084;17.272;2024-03-22T08:40:23;19.67;;;16.42;;
62610;SDS011;48683;48.084;17.272;2024-03-22T08:42:48;19.33;;;15.63;;
62610;SDS011;48683;48.084;17.272;2024-03-22T08:45:14;20.60;;;15.77;;
62610;SDS011;48683;48.084;17.272;2024-03-22T08:47:39;19.48;;;16.30;;
62610;SDS011;48683;48.084;17.272;2024-03-22T08:50:05;19.25;;;15.35;;
62610;SDS011;48683;48.084;17.272;2024-03-22T08:52:30;18.75;;;16.08;;
62610;SDS011;48683;48.084;17.272;2024-03-22T08:54:57;22.30;;;15.65;;
62610;SDS011;48683;48.084;17.272;2024-03-22T08:57:22;20.45;;;15.80;;
62610;SDS011;48683;48.084;17.272;2024-03-22T08:59:47;18.00;;;13.43;;
62610;SDS011;48683;48.084;17.272;2024-03-22T09:02:12;15.60;;;13.05;;
62610;SDS011;48683;48.084;17.272;2024-03-22T09:04:38;18.07;;;14.17;;
62610;SDS011;48683;48.084;17.272;2024-03-22T09:07:03;15.68;;;14.00;;
62610;SDS011;48683;48.084;17.272;2024-03-22T09:09:29;18.87;;;12.63;;
62610;SDS011;48683;48.084;17.272;2024-03-22T09:11:54;14.40;;;12.65;;
62610;SDS011;48683;48.084;17.272;2024-03-22T09:14:19;15.15;;;12.48;;
62610;SDS011;48683;48.084;17.272;2024-03-22T09:16:45;18.63;;;13.63;;
62610;SDS011;48683;48.084;17.272;2024-03-22T09:19:10;14.65;;;12.00;;
62610;SDS011;48683;48.084;17.272;2024-03-22T09:21:36;18.15;;;12.60;;
62610;SDS011;48683;48.084;17.272;2024-03-22T09:24:01;14.98;;;11.80;;
62610;SDS011;48683;48.084;17.272;2024-03-22T09:28:53;12.70;;;9.50;;
62610;SDS011;48683;48.084;17.272;2024-03-22T09:31:18;12.70;;;8.80;;
62610;SDS011;48683;48.084;17.272;2024-03-22T09:33:43;10.82;;;9.52;;
62610;SDS011;48683;48.084;17.272;2024-03-22T09:36:09;11.77;;;9.05;;
62610;SDS011;48683;48.084;17.272;2024-03-22T09:38:34;12.65;;;9.40;;
62610;SDS011;48683;48.084;17.272;2024-03-22T09:40:59;16.83;;;10.63;;
62610;SDS011;48683;48.084;17.272;2024-03-22T09:43:25;14.18;;;10.80;;
62610;SDS011;48683;48.084;17.272;2024-03-22T09:45:52;11.77;;;9.43;;
62610;SDS011;48683;48.084;17.272;2024-03-22T09:48:17;12.67;;;9.33;;
62610;SDS011;48683;48.084;17.272;2024-03-22T09:50:43;13.57;;;10.70;;
62610;SDS011;48683;48.084;17.272;2024-03-22T09:53:09;14.47;;;10.13;;
62610;SDS011;48683;48.084;17.272;2024-03-22T09:55:34;11.98;;;10.05;;
62610;SDS011;48683;48.084;17.272;2024-03-22T09:58:01;14.80;;;11.35;;
62610;SDS011;48683;48.084;17.272;2024-03-22T10:00:27;14.67;;;11.93;;
62610;SDS011;48683;48.084;17.272;2024-03-22T10:02:52;16.43;;;12.57;;
62610;SDS011;48683;48.084;17.272;2024-03-22T10:05:18;17.23;;;12.30;;
62610;SDS011;48683;48.084;17.272;2024-03-22T10:07:44;16.13;;;11.80;;
62610;SDS011;48683;48.084;17.272;2024-03-22T10:10:09;16.75;;;11.25;;
62610;SDS011;48683;48.084;17.272;2024-03-22T10:12:35;15.43;;;11.20;;
62610;SDS011;48683;48.084;17.272;2024-03-22T10:15:00;12.67;;;9.83;;
62610;SDS011;48683;48.084;17.272;2024-03-22T10:17:31;14.90;;;10.03;;
62610;SDS011;48683;48.084;17.272;2024-03-22T10:19:56;12.57;;;10.57;;
62610;SDS011;48683;48.084;17.272;2024-03-22T10:22:21;13.80;;;10.50;;
62610;SDS011;48683;48.084;17.272;2024-03-22T10:24:47;20.35;;;11.65;;
62610;SDS011;48683;48.084;17.272;2024-03-22T10:27:12;14.77;;;10.27;;
62610;SDS011;48683;48.084;17.272;2024-03-22T10:29:38;16.40;;;10.95;;
62610;SDS011;48683;48.084;17.272;2024-03-22T10:32:04;14.13;;;10.73;;
62610;SDS011;48683;48.084;17.272;2024-03-22T10:34:29;15.07;;;10.57;;
62610;SDS011;48683;48.084;17.272;2024-03-22T10:36:57;15.00;;;11.00;;
62610;SDS011;48683;48.084;17.272;2024-03-22T10:39:24;14.73;;;10.82;;
62610;SDS011;48683;48.084;17.272;2024-03-22T10:41:50;15.23;;;11.73;;
62610;SDS011;48683;48.084;17.272;2024-03-22T10:44:15;17.27;;;12.13;;
62610;SDS011;48683;48.084;17.272;2024-03-22T10:46:45;18.60;;;10.95;;
62610;SDS011;48683;48.084;17.272;2024-03-22T10:49:12;17.58;;;11.82;;
62610;SDS011;48683;48.084;17.272;2024-03-22T10:51:40;15.40;;;12.10;;
62610;SDS011;48683;48.084;17.272;2024-03-22T10:54:05;14.23;;;11.93;;
62610;SDS011;48683;48.084;17.272;2024-03-22T10:56:31;14.00;;;12.23;;
62610;SDS011;48683;48.084;17.272;2024-03-22T10:58:56;15.93;;;11.97;;
62610;SDS011;48683;48.084;17.272;2024-03-22T11:01:22;15.17;;;11.37;;
62610;SDS011;48683;48.084;17.272;2024-03-22T11:03:47;15.20;;;12.03;;
62610;SDS011;48683;48.084;17.272;2024-03-22T11:06:12;17.23;;;11.77;;
62610;SDS011;48683;48.084;17.272;2024-03-22T11:08:38;17.10;;;12.20;;
62610;SDS011;48683;48.084;17.272;2024-03-22T11:11:12;15.30;;;10.70;;
62610;SDS011;48683;48.084;17.272;2024-03-22T11:13:38;15.18;;;10.73;;
62610;SDS011;48683;48.084;17.272;2024-03-22T11:16:04;11.68;;;9.73;;
62610;SDS011;48683;48.084;17.272;2024-03-22T11:18:29;15.07;;;9.90;;
62610;SDS011;48683;48.084;17.272;2024-03-22T11:20:54;16.60;;;11.67;;
62610;SDS011;48683;48.084;17.272;2024-03-22T11:23:19;15.80;;;11.23;;
62610;SDS011;48683;48.084;17.272;2024-03-22T11:25:45;14.27;;;11.27;;
62610;SDS011;48683;48.084;17.272;2024-03-22T11:28:11;15.33;;;11.00;;
62610;SDS011;48683;48.084;17.272;2024-03-22T11:30:37;12.23;;;10.30;;
62610;SDS011;48683;48.084;17.272;2024-03-22T11:33:02;13.30;;;8.40;;
62610;SDS011;48683;48.084;17.272;2024-03-22T11:35:28;12.87;;;9.17;;
62610;SDS011;48683;48.084;17.272;2024-03-22T11:37:53;11.73;;;9.27;;
62610;SDS011;48683;48.084;17.272;2024-03-22T11:40:18;11.37;;;8.87;;
62610;SDS011;48683;48.084;17.272;2024-03-22T11:42:47;13.00;;;8.63;;
62610;SDS011;48683;48.084;17.272;2024-03-22T11:45:15;12.63;;;9.15;;
62610;SDS011;48683;48.084;17.272;2024-03-22T11:47:41;13.75;;;9.43;;
62610;SDS011;48683;48.084;17.272;2024-03-22T11:50:06;13.77;;;9.10;;
62610;SDS011;48683;48.084;17.272;2024-03-22T11:52:32;12.00;;;8.33;;
62610;SDS011;48683;48.084;17.272;2024-03-22T11:54:57;13.73;;;9.70;;
62610;SDS011;48683;48.084;17.272;2024-03-22T11:57:22;10.27;;;9.07;;
62610;SDS011;48683;48.084;17.272;2024-03-22T11:59:48;10.63;;;8.67;;
62610;SDS011;48683;48.084;17.272;2024-03-22T12:02:13;11.53;;;9.37;;
62610;SDS011;48683;48.084;17.272;2024-03-22T12:04:45;15.20;;;9.27;;
62610;SDS011;48683;48.084;17.272;2024-03-22T12:07:13;11.98;;;9.27;;
62610;SDS011;48683;48.084;17.272;2024-03-22T12:09:39;11.82;;;8.98;;
62610;SDS011;48683;48.084;17.272;2024-03-22T12:12:05;11.40;;;9.07;;
62610;SDS011;48683;48.084;17.272;2024-03-22T12:14:32;12.73;;;8.75;;
62610;SDS011;48683;48.084;17.272;2024-03-22T12:16:57;9.73;;;7.97;;
62610;SDS011;48683;48.084;17.272;2024-03-22T12:19:23;10.50;;;8.13;;
62610;SDS011;48683;48.084;17.272;2024-03-22T12:21:48;8.43;;;7.53;;
62610;SDS011;48683;48.084;17.272;2024-03-22T12:24:13;13.23;;;8.13;;
62610;SDS011;48683;48.084;17.272;2024-03-22T12:26:39;10.90;;;8.82;;
62610;SDS011;48683;48.084;17.272;2024-03-22T12:29:04;12.17;;;9.17;;
62610;SDS011;48683;48.084;17.272;2024-03-22T12:31:29;11.83;;;8.27;;
62610;SDS011;48683;48.084;17.272;2024-03-22T12:33:55;14.03;;;8.97;;
62610;SDS011;48683;48.084;17.272;2024-03-22T12:36:20;13.27;;;9.97;;
62610;SDS011;48683;48.084;17.272;2024-03-22T12:38:45;12.17;;;9.57;;
62610;SDS011;48683;48.084;17.272;2024-03-22T12:41:11;13.57;;;10.73;;
62610;SDS011;48683;48.084;17.272;2024-03-22T12:43:36;13.43;;;10.50;;
62610;SDS011;48683;48.084;17.272;2024-03-22T12:46:01;17.40;;;10.50;;
62610;SDS011;48683;48.084;17.272;2024-03-22T12:48:27;16.02;;;10.85;;
62610;SDS011;48683;48.084;17.272;2024-03-22T12:50:53;14.40;;;9.60;;
62610;SDS011;48683;48.084;17.272;2024-03-22T12:53:18;15.50;;;10.00;;
62610;SDS011;48683;48.084;17.272;2024-03-22T12:55:43;14.63;;;10.27;;
62610;SDS011;48683;48.084;17.272;2024-03-22T12:58:08;12.67;;;9.40;;
62610;SDS011;48683;48.084;17.272;2024-03-22T13:00:33;14.33;;;9.90;;
62610;SDS011;48683;48.084;17.272;2024-03-22T13:02:59;12.73;;;9.80;;
62610;SDS011;48683;48.084;17.272;2024-03-22T13:05:25;10.57;;;8.23;;
62610;SDS011;48683;48.084;17.272;2024-03-22T13:07:50;11.53;;;8.00;;
62610;SDS011;48683;48.084;17.272;2024-03-22T13:10:15;14.47;;;8.23;;
62610;SDS011;48683;48.084;17.272;2024-03-22T13:12:41;14.50;;;8.13;;
62610;SDS011;48683;48.084;17.272;2024-03-22T13:15:07;11.63;;;8.37;;
62610;SDS011;48683;48.084;17.272;2024-03-22T13:17:32;9.47;;;8.03;;
62610;SDS011;48683;48.084;17.272;2024-03-22T13:19:57;12.60;;;8.07;;
62610;SDS011;48683;48.084;17.272;2024-03-22T13:22:23;9.47;;;7.67;;
62610;SDS011;48683;48.084;17.272;2024-03-22T13:24:48;8.17;;;6.97;;
62610;SDS011;48683;48.084;17.272;2024-03-22T13:27:15;9.68;;;7.18;;
62610;SDS011;48683;48.084;17.272;2024-03-22T13:29:40;9.83;;;6.70;;
62610;SDS011;48683;48.084;17.272;2024-03-22T13:32:05;13.17;;;7.40;;
62610;SDS011;48683;48.084;17.272;2024-03-22T13:34:33;11.95;;;7.35;;
62610;SDS011;48683;48.084;17.272;2024-03-22T13:36:58;10.07;;;7.43;;
62610;SDS011;48683;48.084;17.272;2024-03-22T13:39:23;12.53;;;7.93;;
62610;SDS011;48683;48.084;17.272;2024-03-22T13:41:48;9.00;;;7.40;;
62610;SDS011;48683;48.084;17.272;2024-03-22T13:44:13;9.43;;;7.77;;
62610;SDS011;48683;48.084;17.272;2024-03-22T13:46:38;13.43;;;7.73;;
62610;SDS011;48683;48.084;17.272;2024-03-22T13:49:13;11.27;;;7.57;;
62610;SDS011;48683;48.084;17.272;2024-03-22T13:51:41;10.93;;;6.63;;
62610;SDS011;48683;48.084;17.272;2024-03-22T13:54:06;9.37;;;7.37;;
62610;SDS011;48683;48.084;17.272;2024-03-22T13:56:31;9.57;;;7.13;;
62610;SDS011;48683;48.084;17.272;2024-03-22T13:58:56;13.07;;;8.37;;
62610;SDS011;48683;48.084;17.272;2024-03-22T14:01:21;10.73;;;7.90;;
62610;SDS011;48683;48.084;17.272;2024-03-22T14:03:47;13.43;;;8.47;;
62610;SDS011;48683;48.084;17.272;2024-03-22T14:06:13;11.47;;;7.00;;
62610;SDS011;48683;48.084;17.272;2024-03-22T14:08:38;11.07;;;7.53;;